Time;durP1;ratioP1;P1;durP2;ratioP2;P2;SDS_P1;SDS_P2;PMS_P1;PMS_P2;Temp;Humidity;BMP_temperature;BMP_pressure;BME280_temperature;BME280_humidity;BME280_pressure;Samples;Min_cycle;Max_cycle;Signal;HPM_P1;HPM_P2
2023/10/10 07:41:52;;;;;;;;;;;;;;;9.45;100.00;100198.53;5049226;28;20523;-85
2023/10/10 07:44:30;;;;;;;;;;;;;;;9.45;100.00;100199.38;5098953;27;19958;-84
2023/10/10 07:47:19;;;;;;;;;;;;;;;9.44;100.00;100212.66;5115887;28;19973;-85
2023/10/10 07:49:50;;;;;;;;;;;;;;;9.44;100.00;100199.44;5100009;28;19916;-84
2023/10/10 07:52:16;;;;;;;;;;;;;;;9.45;100.00;100207.31;5099313;28;19920;-83
2023/10/10 07:54:44;;;;;;;;;;;;;;;9.47;100.00;100201.97;5098527;28;19943;-84
2023/10/10 07:57:17;;;;;;;;;;;;;;;9.42;100.00;100209.19;5114222;28;20379;-83
2023/10/10 07:59:42;;;;;;;;;;;;;;;9.54;100.00;100195.59;5081236;28;19963;-85
2023/10/10 08:02:31;;;;;;;;;;;;;;;9.51;100.00;100203.63;5114058;28;20036;-85
2023/10/10 08:05:01;;;;;;;;;;;;;;;9.49;100.00;100196.66;5099256;28;20015;-88
2023/10/10 08:07:26;;;;;;;;;;;;;;;9.57;100.00;100200.78;5099471;28;19920;-86
2023/10/10 08:10:11;;;;;;;;;;;;;;;9.56;100.00;100203.50;5111739;28;19924;-86
2023/10/10 08:12:37;;;;;;;;;;;;;;;9.50;100.00;100196.59;5100425;28;19932;-85
2023/10/10 08:15:18;;;;;;;;;;;;;;;9.51;100.00;100200.09;5099053;28;20310;-86
2023/10/10 08:17:51;;;;;;;;;;;;;;;9.54;100.00;100203.53;5098653;28;20394;-87
2023/10/10 08:23:04;;;;;;;;;;;;;;;9.59;100.00;100201.59;5098241;28;20122;-89
2023/10/10 08:25:29;;;;;;;;;;;;;;;9.59;100.00;100206.88;5113422;28;19928;-94
2023/10/10 08:28:00;;;;;;;;;;;;;;;9.60;100.00;100203.31;5115044;28;19920;-85
2023/10/10 08:30:26;;;;;;;;;;;;;;;9.56;100.00;100209.63;5082475;28;19943;-84
2023/10/10 08:32:55;;;;;;;;;;;;;;;9.54;100.00;100207.94;5098666;28;19924;-84
2023/10/10 08:35:22;;;;;;;;;;;;;;;9.57;100.00;100208.72;5098514;28;19924;-84
2023/10/10 08:37:47;;;;;;;;;;;;;;;9.56;100.00;100207.00;5098476;28;19920;-84
2023/10/10 08:40:19;;;;;;;;;;;;;;;9.58;100.00;100205.16;5098046;28;19943;-84
2023/10/10 08:42:45;;;;;;;;;;;;;;;9.64;100.00;100209.38;5098352;28;19924;-86
2023/10/10 08:45:22;;;;;;;;;;;;;;;9.67;100.00;100213.69;5080427;28;19916;-84
2023/10/10 08:47:48;;;;;;;;;;;;;;;9.70;100.00;100218.88;5099032;28;19916;-84
2023/10/10 08:50:15;;;;;;;;;;;;;;;9.70;100.00;100214.50;5098350;28;19948;-84
2023/10/10 08:52:41;;;;;;;;;;;;;;;9.67;100.00;100214.59;5114182;28;20010;-84
2023/10/10 08:55:10;;;;;;;;;;;;;;;9.66;100.00;100218.13;5087469;28;20411;-85
2023/10/10 08:57:38;;;;;;;;;;;;;;;9.75;100.00;100215.19;5066589;28;19967;-85
2023/10/10 09:00:06;;;;;;;;;;;;;;;9.74;100.00;100209.94;5085235;28;19927;-85
2023/10/10 09:02:33;;;;;;;;;;;;;;;9.74;100.00;100210.81;5099777;28;19917;-85
2023/10/10 09:05:04;;;;;;;;;;;;;;;14.31;100.00;100216.59;5070491;28;19920;-83
2023/10/10 09:07:32;;;;;;;;;;;;;;;13.92;100.00;100199.00;5086957;28;19916;-84
2023/10/10 09:12:56;;;;;;;;;;;;;;;10.34;100.00;100206.16;5072143;28;20003;-88
2023/10/10 09:15:22;;;;;;;;;;;;;;;10.32;100.00;100212.41;5059803;28;20046;-85
2023/10/10 09:17:48;;;;;;;;;;;;;;;10.19;100.00;100217.25;5105248;28;19919;-84
2023/10/10 09:20:30;;;;;;;;;;;;;;;10.15;100.00;100211.22;5104563;28;20008;-83
2023/10/10 09:23:02;;;;;;;;;;;;;;;10.23;100.00;100207.41;5104579;28;19998;-84
2023/10/10 09:25:48;;;;;;;;;;;;;;;10.13;100.00;100213.06;5103338;28;19927;-84
2023/10/10 09:28:15;;;;;;;;;;;;;;;15.67;100.00;100219.97;5105112;28;19915;-85
2023/10/10 09:30:58;;;;;;;;;;;;;;;16.51;100.00;100197.22;5107009;28;19920;-89
2023/10/10 09:36:19;;;;;;;;;;;;;;;14.48;100.00;100190.84;5107090;28;19978;-88
2023/10/10 09:38:46;;;;;;;;;;;;;;;12.45;100.00;100201.47;5111562;28;19934;-83
2023/10/10 09:55:02;;;;;;;;;;;;;;;10.72;100.00;100193.34;5104928;28;19926;-88
2023/10/10 09:57:28;;;;;;;;;;;;;;;10.50;100.00;100192.41;5104954;28;19924;-86
2023/10/10 10:00:30;;;;;;;;;;;;;;;10.27;100.00;100188.72;5103508;28;19985;-87
2023/10/10 10:02:57;;;;;;;;;;;;;;;10.11;100.00;100192.84;5103290;28;19920;-87
2023/10/10 10:05:28;;;;;;;;;;;;;;;10.05;100.00;100200.97;5102694;28;19962;-87
2023/10/10 10:08:23;;;;;;;;;;;;;;;9.82;100.00;100202.63;5104521;28;19927;-86
2023/10/10 10:10:55;;;;;;;;;;;;;;;9.73;100.00;100197.63;5092495;28;20112;-84
2023/10/10 10:13:37;;;;;;;;;;;;;;;9.73;100.00;100205.56;5103040;28;20317;-86
2023/10/10 10:16:15;;;;;;;;;;;;;;;9.25;100.00;100207.97;5105197;28;20301;-86
2023/10/10 10:18:52;;;;;;;;;;;;;;;9.17;100.00;100215.22;5085565;28;20310;-90
2023/10/10 10:21:29;;;;;;;;;;;;;;;9.21;100.00;100222.16;5086232;28;20041;-90
2023/10/10 10:27:11;;;;;;;;;;;;;;;9.25;100.00;100223.81;5104894;28;20432;-87
2023/10/10 10:29:37;;;;;;;;;;;;;;;9.42;100.00;100215.34;5086782;28;20010;-86
2023/10/10 10:32:15;;;;;;;;;;;;;;;9.46;100.00;100208.19;5104469;28;20016;-94
2023/10/10 10:34:45;;;;;;;;;;;;;;;9.61;100.00;100223.56;5085248;28;19920;-87
2023/10/10 10:37:23;;;;;;;;;;;;;;;9.61;100.00;100220.06;5084451;28;19980;-86
2023/10/10 10:42:41;;;;;;;;;;;;;;;9.66;100.00;100217.28;5102666;28;19929;-85
2023/10/10 10:45:32;;;;;;;;;;;;;;;9.68;100.00;100218.09;5085893;28;19919;-86
2023/10/10 10:47:59;;;;;;;;;;;;;;;9.69;100.00;100210.09;5104560;28;20006;-88
2023/10/10 10:50:40;;;;;;;;;;;;;;;9.73;100.00;100213.50;5084898;28;19924;-86
2023/10/10 10:53:08;;;;;;;;;;;;;;;9.76;100.00;100214.25;5084230;28;19997;-87
2023/10/10 10:55:40;;;;;;;;;;;;;;;9.84;100.00;100216.66;5084727;28;19920;-84
2023/10/10 10:58:20;;;;;;;;;;;;;;;9.83;100.00;100220.25;5103991;28;19931;-84
2023/10/10 11:03:24;;;;;;;;;;;;;;;9.89;100.00;100209.47;5104306;28;20364;-87
2023/10/10 11:05:53;;;;;;;;;;;;;;;9.92;100.00;100214.63;5101185;28;19971;-87
2023/10/10 11:09:09;;;;;;;;;;;;;;;9.94;100.00;100210.16;5084170;28;19923;-88
2023/10/10 11:13:54;;;;;;;;;;;;;;;9.98;100.00;100198.53;5103313;28;20032;-85
2023/10/10 11:16:24;;;;;;;;;;;;;;;9.98;100.00;100195.88;5084670;28;19957;-87
2023/10/10 11:18:57;;;;;;;;;;;;;;;10.00;100.00;100196.72;5109698;28;19916;-87
2023/10/10 11:21:27;;;;;;;;;;;;;;;10.01;100.00;100187.00;5101422;28;19956;-88
2023/10/10 11:23:57;;;;;;;;;;;;;;;10.04;100.00;100183.38;5082827;28;19988;-88
2023/10/10 11:26:34;;;;;;;;;;;;;;;10.05;100.00;100178.03;5083493;28;19917;-88
2023/10/10 11:29:00;;;;;;;;;;;;;;;10.08;100.00;100185.00;5084660;28;19920;-87
2023/10/10 11:31:29;;;;;;;;;;;;;;;10.08;100.00;100175.25;5084115;28;19916;-87
2023/10/10 11:34:10;;;;;;;;;;;;;;;10.11;100.00;100174.28;5084358;28;19920;-87
2023/10/10 11:36:39;;;;;;;;;;;;;;;10.11;100.00;100171.66;5085222;28;19920;-91
2023/10/10 11:39:23;;;;;;;;;;;;;;;10.14;100.00;100168.91;5100882;28;19920;-88
2023/10/10 11:41:50;;;;;;;;;;;;;;;10.15;100.00;100157.41;5101541;28;19920;-87
2023/10/10 11:44:21;;;;;;;;;;;;;;;10.14;100.00;100156.50;5073451;28;19924;-87
2023/10/10 11:46:56;;;;;;;;;;;;;;;10.18;100.00;100157.28;5101879;28;19924;-86
2023/10/10 11:49:21;;;;;;;;;;;;;;;10.19;100.00;100153.69;5084780;28;19938;-92
2023/10/10 11:55:00;;;;;;;;;;;;;;;11.29;100.00;100147.84;5049479;23;19932;-87
2023/10/10 11:57:28;;;;;;;;;;;;;;;10.48;100.00;100149.16;5041504;28;19925;-86
2023/10/10 11:59:58;;;;;;;;;;;;;;;10.33;100.00;100150.59;5042016;28;20249;-87
2023/10/10 12:02:29;;;;;;;;;;;;;;;10.29;100.00;100149.81;5041747;28;19924;-87
2023/10/10 12:04:55;;;;;;;;;;;;;;;10.32;100.00;100148.84;5063741;28;19925;-86
2023/10/10 12:07:24;;;;;;;;;;;;;;;10.29;100.00;100141.88;5041009;28;19970;-86
2023/10/10 12:09:51;;;;;;;;;;;;;;;10.31;100.00;100142.69;5039603;28;20310;-87
2023/10/10 12:12:17;;;;;;;;;;;;;;;10.31;100.00;100139.19;5041791;28;20334;-87
2023/10/10 12:14:42;;;;;;;;;;;;;;;10.34;100.00;100134.66;5040838;28;19921;-86
2023/10/10 12:17:08;;;;;;;;;;;;;;;10.31;100.00;100132.09;5040401;28;20835;-87
2023/10/10 12:19:37;;;;;;;;;;;;;;;10.31;100.00;100132.09;5065241;28;19920;-86
2023/10/10 12:22:10;;;;;;;;;;;;;;;10.32;100.00;100133.84;5065026;28;19921;-87
2023/10/10 12:24:35;;;;;;;;;;;;;;;10.34;100.00;100129.34;5040336;28;20379;-86
2023/10/10 12:27:01;;;;;;;;;;;;;;;10.34;100.00;100120.56;5040419;28;19922;-87
2023/10/10 12:29:30;;;;;;;;;;;;;;;10.35;100.00;100115.22;5040153;28;19921;-86
2023/10/10 12:31:58;;;;;;;;;;;;;;;10.39;100.00;100112.41;5045101;28;19921;-86
2023/10/10 12:34:23;;;;;;;;;;;;;;;10.39;100.00;100115.06;5069137;28;19925;-87
2023/10/10 12:36:49;;;;;;;;;;;;;;;10.39;100.00;100104.47;5044925;28;20400;-86
2023/10/10 12:39:18;;;;;;;;;;;;;;;10.40;100.00;100108.84;5067553;28;19971;-87
2023/10/10 12:41:47;;;;;;;;;;;;;;;10.41;100.00;100105.31;5043885;28;19917;-88
2023/10/10 12:44:13;;;;;;;;;;;;;;;10.40;100.00;100104.41;5045501;28;20418;-87
2023/10/10 12:46:40;;;;;;;;;;;;;;;10.42;100.00;100096.41;5043434;28;19921;-86
2023/10/10 12:49:05;;;;;;;;;;;;;;;10.43;100.00;100100.81;5043759;28;19939;-87
2023/10/10 12:51:30;;;;;;;;;;;;;;;10.43;100.00;100099.00;5047019;28;19932;-88
2023/10/10 12:54:05;;;;;;;;;;;;;;;10.45;100.00;100098.94;5044918;28;19979;-85
2023/10/10 12:56:38;;;;;;;;;;;;;;;10.44;100.00;100102.53;5066341;28;20803;-87
2023/10/10 12:59:04;;;;;;;;;;;;;;;10.46;100.00;100100.69;5067999;28;20371;-87
2023/10/10 13:01:32;;;;;;;;;;;;;;;10.47;100.00;100089.19;5044886;28;20003;-87
2023/10/10 13:03:59;;;;;;;;;;;;;;;10.48;100.00;100090.88;5042839;28;19920;-86
2023/10/10 13:06:28;;;;;;;;;;;;;;;10.50;100.00;100089.91;5045097;28;20372;-85
2023/10/10 13:11:20;;;;;;;;;;;;;;;10.48;100.00;100086.47;5045662;28;20349;-86
2023/10/10 13:13:48;;;;;;;;;;;;;;;10.49;100.00;100082.88;5068321;28;19924;-86
2023/10/10 13:16:37;;;;;;;;;;;;;;;10.55;100.00;100081.81;5045064;28;19925;-86
2023/10/10 13:19:06;;;;;;;;;;;;;;;10.56;100.00;100082.66;5043021;28;19931;-88
2023/10/10 13:21:39;;;;;;;;;;;;;;;10.54;100.00;100072.13;5045006;28;19925;-86
2023/10/10 13:24:09;;;;;;;;;;;;;;;10.57;100.00;100068.50;5064956;28;19924;-85
2023/10/10 13:26:35;;;;;;;;;;;;;;;10.56;100.00;100072.91;5043032;28;19928;-86
2023/10/10 13:29:02;;;;;;;;;;;;;;;10.55;100.00;100076.50;5044006;28;19924;-89
2023/10/10 13:31:29;;;;;;;;;;;;;;;10.57;100.00;100072.00;5067924;28;20012;-89
2023/10/10 13:33:57;;;;;;;;;;;;;;;10.62;100.00;100077.97;5043861;28;20023;-87
2023/10/10 13:36:23;;;;;;;;;;;;;;;10.58;100.00;100073.75;5045075;28;19924;-86
2023/10/10 13:38:50;;;;;;;;;;;;;;;10.58;100.00;100076.38;5042970;28;19928;-86
2023/10/10 13:41:22;;;;;;;;;;;;;;;10.58;100.00;100076.38;5066171;28;19966;-86
2023/10/10 13:43:48;;;;;;;;;;;;;;;10.60;100.00;100073.69;5049327;28;20052;-86
2023/10/10 13:46:14;;;;;;;;;;;;;;;10.61;100.00;100070.09;5043335;28;19936;-87
2023/10/10 13:48:40;;;;;;;;;;;;;;;10.60;100.00;100069.22;5063320;28;20295;-87
2023/10/10 13:51:07;;;;;;;;;;;;;;;10.60;100.00;100071.88;5043714;28;20390;-87
2023/10/10 13:53:32;;;;;;;;;;;;;;;10.60;100.00;100074.53;5049051;28;19928;-86
2023/10/10 13:56:00;;;;;;;;;;;;;;;10.61;100.00;100073.63;5043933;28;19924;-86
2023/10/10 13:58:25;;;;;;;;;;;;;;;10.64;100.00;100064.66;5043028;28;19928;-86
2023/10/10 14:00:55;;;;;;;;;;;;;;;10.63;100.00;100069.13;5042166;28;19924;-86
2023/10/10 14:03:28;;;;;;;;;;;;;;;10.64;100.00;100070.84;5043288;28;19921;-86
2023/10/10 14:06:00;;;;;;;;;;;;;;;10.68;100.00;100063.63;5043675;28;19991;-86
2023/10/10 14:08:25;;;;;;;;;;;;;;;10.66;100.00;100068.16;5042486;28;19955;-86
2023/10/10 14:10:53;;;;;;;;;;;;;;;10.65;100.00;100069.91;5043727;28;19917;-87
2023/10/10 14:13:19;;;;;;;;;;;;;;;10.67;100.00;100065.44;5067685;28;20363;-90
2023/10/10 14:15:54;;;;;;;;;;;;;;;10.69;100.00;100062.69;5066437;28;19924;-88
2023/10/10 14:18:23;;;;;;;;;;;;;;;10.69;100.00;100068.88;5064314;28;19945;-86
2023/10/10 14:20:50;;;;;;;;;;;;;;;10.73;100.00;100065.16;5044854;28;19917;-87
2023/10/10 14:23:18;;;;;;;;;;;;;;;10.73;100.00;100070.47;5064763;28;19932;-87
2023/10/10 14:25:47;;;;;;;;;;;;;;;10.70;100.00;100054.69;5067180;28;20002;-86
2023/10/10 14:28:17;;;;;;;;;;;;;;;10.77;100.00;100062.41;5053468;28;19921;-94
2023/10/10 14:30:43;;;;;;;;;;;;;;;10.78;100.00;100061.50;5051579;28;20288;-87
2023/10/10 14:33:08;;;;;;;;;;;;;;;10.79;100.00;100063.22;5051567;28;19943;-85
2023/10/10 14:35:34;;;;;;;;;;;;;;;10.77;100.00;100055.34;5051662;28;20360;-88
2023/10/10 14:38:00;;;;;;;;;;;;;;;10.79;100.00;100058.78;5051449;28;19971;-88
2023/10/10 14:40:26;;;;;;;;;;;;;;;10.80;100.00;100056.97;5049465;28;19917;-87
2023/10/10 14:42:54;;;;;;;;;;;;;;;10.81;100.00;100062.22;5051063;28;19935;-87
2023/10/10 14:45:28;;;;;;;;;;;;;;;10.81;100.00;100058.72;5052519;28;19946;-86
2023/10/10 14:47:53;;;;;;;;;;;;;;;10.81;100.00;100045.47;5051354;28;20352;-86
2023/10/10 14:50:23;;;;;;;;;;;;;;;10.84;100.00;100045.34;5052979;28;19927;-85
2023/10/10 14:52:51;;;;;;;;;;;;;;;10.84;100.00;100048.00;5047749;28;20356;-87
2023/10/10 14:55:27;;;;;;;;;;;;;;;10.85;100.00;100047.94;5048780;28;19920;-86
2023/10/10 14:57:56;;;;;;;;;;;;;;;10.84;100.00;100042.69;5052812;28;19921;-86
2023/10/10 15:00:22;;;;;;;;;;;;;;;10.85;100.00;100036.44;5051238;28;19927;-86
2023/10/10 15:02:48;;;;;;;;;;;;;;;10.86;100.00;100038.19;5050051;28;19924;-87
2023/10/10 15:05:14;;;;;;;;;;;;;;;10.84;100.00;100035.59;5052476;28;19974;-87
2023/10/10 15:07:41;;;;;;;;;;;;;;;10.88;100.00;100039.88;5052348;28;20303;-86
2023/10/10 15:10:07;;;;;;;;;;;;;;;10.87;100.00;100032.81;5049638;28;19920;-87
2023/10/10 15:12:33;;;;;;;;;;;;;;;10.87;100.00;100032.81;5051385;28;20744;-86
2023/10/10 15:15:00;;;;;;;;;;;;;;;10.90;100.00;100034.50;5050991;28;19940;-87
2023/10/10 15:17:27;;;;;;;;;;;;;;;10.91;100.00;100036.22;5051026;28;19983;-85
2023/10/10 15:19:52;;;;;;;;;;;;;;;10.93;100.00;100038.81;5049884;28;20029;-87
2023/10/10 15:22:18;;;;;;;;;;;;;;;10.90;100.00;100029.19;5051174;28;19964;-86
2023/10/10 15:24:49;;;;;;;;;;;;;;;10.91;100.00;100028.25;5048847;28;19921;-85
2023/10/10 15:27:15;;;;;;;;;;;;;;;10.92;100.00;100030.00;5050093;28;19924;-86
2023/10/10 15:29:42;;;;;;;;;;;;;;;10.93;100.00;100029.06;5049825;28;19932;-88
2023/10/10 15:32:07;;;;;;;;;;;;;;;10.92;100.00;100037.09;5050725;28;19978;-86
2023/10/10 15:34:33;;;;;;;;;;;;;;;10.92;100.00;100030.00;5050697;28;20342;-86
2023/10/10 15:37:00;;;;;;;;;;;;;;;10.91;100.00;100033.56;5051832;28;19916;-86
2023/10/10 15:39:25;;;;;;;;;;;;;;;10.93;100.00;100029.06;5049288;28;19921;-86
2023/10/10 15:41:50;;;;;;;;;;;;;;;10.94;100.00;100025.47;5051165;28;19921;-86
2023/10/10 15:44:16;;;;;;;;;;;;;;;10.98;100.00;100027.09;5052413;28;19917;-90
2023/10/10 15:46:43;;;;;;;;;;;;;;;10.93;100.00;100029.06;5051509;28;19917;-90
2023/10/10 15:49:09;;;;;;;;;;;;;;;10.96;100.00;100023.66;5050930;28;19954;-90
2023/10/10 15:51:38;;;;;;;;;;;;;;;11.00;100.00;100033.19;5050781;28;20391;-89
2023/10/10 15:54:05;;;;;;;;;;;;;;;10.98;100.00;100032.41;5049571;28;19921;-86
2023/10/10 15:56:30;;;;;;;;;;;;;;;10.99;100.00;100022.66;5051650;28;19917;-86
2023/10/10 15:58:56;;;;;;;;;;;;;;;11.00;100.00;100029.69;5051511;28;20382;-86
2023/10/10 16:01:28;;;;;;;;;;;;;;;11.00;100.00;100025.25;5051456;28;20007;-87
2023/10/10 16:04:05;;;;;;;;;;;;;;;11.02;100.00;100023.38;5050776;28;19917;-84
2023/10/10 16:06:30;;;;;;;;;;;;;;;11.04;100.00;100021.53;5054331;28;19916;-88
2023/10/10 16:08:57;;;;;;;;;;;;;;;11.02;100.00;100020.72;5054055;28;19921;-86
2023/10/10 16:11:31;;;;;;;;;;;;;;;11.05;100.00;100025.91;5054236;28;19917;-88
2023/10/10 16:13:56;;;;;;;;;;;;;;;11.06;100.00;100018.84;5053873;28;19917;-87
2023/10/10 16:16:21;;;;;;;;;;;;;;;11.04;100.00;100015.34;5055681;28;19917;-86
2023/10/10 16:18:47;;;;;;;;;;;;;;;11.05;100.00;100022.41;5054250;28;19917;-89
2023/10/10 16:21:16;;;;;;;;;;;;;;;11.05;100.00;100017.09;5054479;28;19995;-84
2023/10/10 16:27:04;;;;;;;;;;;;;;;11.07;100.00;100020.53;5082626;22;19935;-87
2023/10/10 16:29:35;;;;;;;;;;;;;;;11.06;100.00;100024.13;5072434;28;19920;-86
2023/10/10 16:32:09;;;;;;;;;;;;;;;11.10;100.00;100015.13;5064251;28;19916;-87
2023/10/10 16:34:38;;;;;;;;;;;;;;;11.08;100.00;100023.13;5089684;28;19920;-85
2023/10/10 16:37:05;;;;;;;;;;;;;;;11.07;100.00;100017.88;5064316;28;19921;-86
2023/10/10 16:39:30;;;;;;;;;;;;;;;11.07;100.00;100018.78;5063769;28;20549;-85
2023/10/10 16:41:58;;;;;;;;;;;;;;;11.09;100.00;100016.91;5065474;28;20010;-87
2023/10/10 16:44:23;;;;;;;;;;;;;;;10.47;100.00;100015.84;5088867;28;19920;-86
2023/10/10 16:46:49;;;;;;;;;;;;;;;9.50;100.00;100014.06;5065019;28;19971;-87
2023/10/10 16:49:14;;;;;;;;;;;;;;;9.00;100.00;100014.88;5065016;28;19916;-86
2023/10/10 16:51:40;;;;;;;;;;;;;;;8.81;100.00;100009.31;5065065;28;19967;-87
2023/10/10 16:54:06;;;;;;;;;;;;;;;8.60;100.00;100007.34;5087714;28;20260;-85
2023/10/10 16:56:34;;;;;;;;;;;;;;;8.49;100.00;100005.91;5088948;28;19920;-86
2023/10/10 16:58:59;;;;;;;;;;;;;;;8.37;100.00;100011.53;5063291;28;19920;-87
2023/10/10 17:04:00;;;;;;;;;;;;;;;8.23;100.00;100017.22;5328398;23;19929;-87
2023/10/10 17:06:27;;;;;;;;;;;;;;;8.21;100.00;100010.28;5054540;28;20378;-87
2023/10/10 17:08:54;;;;;;;;;;;;;;;8.10;100.00;100019.34;5051940;28;19924;-86
2023/10/10 17:11:20;;;;;;;;;;;;;;;8.03;100.00;100014.31;5062109;22;19933;-86
2023/10/10 17:13:46;;;;;;;;;;;;;;;8.06;100.00;100017.72;5033462;28;20011;-86
2023/10/10 17:17:05;;;;;;;;;;;;;;;8.04;100.00;100018.66;5033936;28;20012;-88
2023/10/10 17:19:35;;;;;;;;;;;;;;;8.02;100.00;100020.50;4983387;28;19922;-84
2023/10/10 17:22:00;;;;;;;;;;;;;;;7.94;100.00;100018.91;4982982;28;20290;-86
2023/10/10 17:24:26;;;;;;;;;;;;;;;7.87;100.00;100016.53;5023883;28;19917;-85
2023/10/10 17:26:53;;;;;;;;;;;;;;;7.89;100.00;100020.84;5034445;28;19971;-85
2023/10/10 17:29:19;;;;;;;;;;;;;;;7.87;100.00;100014.75;5037569;28;19917;-86
2023/10/10 17:31:44;;;;;;;;;;;;;;;7.87;100.00;100016.53;5032888;28;19924;-86
2023/10/10 17:34:15;;;;;;;;;;;;;;;7.82;100.00;100019.28;5034135;28;19925;-85
2023/10/10 17:36:41;;;;;;;;;;;;;;;7.79;100.00;100022.00;5033638;28;19917;-86
2023/10/10 17:42:11;;;;;;;;;;;;;;;7.73;100.00;100025.66;5022066;28;20441;-85
2023/10/10 17:44:37;;;;;;;;;;;;;;;7.71;100.00;100032.75;5034014;28;19917;-90
2023/10/10 17:47:02;;;;;;;;;;;;;;;7.70;100.00;100024.91;5034109;28;20014;-85
2023/10/10 17:49:28;;;;;;;;;;;;;;;7.61;100.00;100029.50;5032684;28;19971;-85
2023/10/10 17:51:54;;;;;;;;;;;;;;;7.66;100.00;100018.84;5034100;28;19934;-86
2023/10/10 17:54:19;;;;;;;;;;;;;;;7.60;100.00;100029.56;5031253;28;19924;-85
2023/10/10 17:56:45;;;;;;;;;;;;;;;7.54;100.00;100027.06;5033750;28;20425;-86
2023/10/10 17:59:11;;;;;;;;;;;;;;;7.57;100.00;100030.50;5032499;28;19921;-86
2023/10/10 18:01:37;;;;;;;;;;;;;;;7.54;100.00;100029.72;5033814;28;19917;-87
2023/10/10 18:04:02;;;;;;;;;;;;;;;7.51;100.00;100029.78;5033617;28;19917;-85
2023/10/10 18:06:28;;;;;;;;;;;;;;;7.46;100.00;100022.84;5033384;28;19928;-86
2023/10/10 18:08:55;;;;;;;;;;;;;;;7.45;100.00;100031.69;5032308;28;19936;-87
2023/10/10 18:11:20;;;;;;;;;;;;;;;7.57;100.00;100027.00;5033154;28;20381;-86
2023/10/10 18:13:46;;;;;;;;;;;;;;;7.42;100.00;100029.13;5032362;28;19984;-86
2023/10/10 18:16:11;;;;;;;;;;;;;;;7.37;100.00;100027.50;5031302;28;19917;-86
2023/10/10 18:18:37;;;;;;;;;;;;;;;7.34;100.00;100033.75;5032050;28;19928;-86
2023/10/10 18:21:07;;;;;;;;;;;;;;;7.34;100.00;100033.75;5033419;28;20000;-88
2023/10/10 18:23:32;;;;;;;;;;;;;;;7.29;100.00;100030.34;5031138;28;20283;-86
2023/10/10 18:26:00;;;;;;;;;;;;;;;7.30;100.00;100034.72;5032323;28;19976;-87
2023/10/10 18:28:28;;;;;;;;;;;;;;;7.36;100.00;100031.94;5031576;28;20287;-87
2023/10/10 18:30:53;;;;;;;;;;;;;;;7.33;100.00;100025.88;5048468;28;19967;-87
2023/10/10 18:33:19;;;;;;;;;;;;;;;7.22;100.00;100034.03;5033020;28;19956;-87
2023/10/10 18:35:46;;;;;;;;;;;;;;;7.45;100.00;100023.78;5033148;28;20035;-86
2023/10/10 18:38:11;;;;;;;;;;;;;;;7.62;100.00;100022.47;5032817;28;19924;-88
2023/10/10 18:40:40;;;;;;;;;;;;;;;7.71;100.00;100022.22;5031648;28;19921;-88
2023/10/10 18:43:07;;;;;;;;;;;;;;;7.64;100.00;100021.53;5032273;28;20483;-86
2023/10/10 18:45:32;;;;;;;;;;;;;;;7.58;100.00;100028.75;5032786;28;19917;-86
2023/10/10 18:47:58;;;;;;;;;;;;;;;7.56;100.00;100022.63;5032968;28;19939;-86
2023/10/10 18:50:24;;;;;;;;;;;;;;;7.78;100.00;100018.47;5034282;28;20371;-86
2023/10/10 18:52:51;;;;;;;;;;;;;;;7.68;100.00;100022.28;5031598;28;19976;-87
2023/10/10 18:55:17;;;;;;;;;;;;;;;7.72;100.00;100017.78;5031304;28;19917;-85
2023/10/10 18:57:43;;;;;;;;;;;;;;;7.66;100.00;100012.69;5032655;28;19944;-85
2023/10/10 19:00:09;;;;;;;;;;;;;;;7.62;100.00;100014.53;5032634;28;19948;-87
2023/10/10 19:02:34;;;;;;;;;;;;;;;7.55;100.00;100016.50;5031341;28;19923;-91
2023/10/10 19:05:00;;;;;;;;;;;;;;;7.51;100.00;100020.09;5032784;28;19921;-86
2023/10/10 19:07:26;;;;;;;;;;;;;;;7.67;100.00;100015.28;5031693;28;19928;-90
2023/10/10 19:09:51;;;;;;;;;;;;;;;7.42;100.00;100021.22;5031253;28;19917;-87
2023/10/10 19:12:24;;;;;;;;;;;;;;;7.34;100.00;100019.66;5062132;28;19921;-89
2023/10/10 19:15:15;;;;;;;;;;;;;;;7.39;100.00;100023.94;5054013;28;20011;-93
2023/10/10 19:17:50;;;;;;;;;;;;;;;7.44;100.00;100022.03;5070646;28;20405;-90
2023/10/10 19:20:21;;;;;;;;;;;;;;;7.55;100.00;100026.19;5071937;28;20329;-87
2023/10/10 19:25:49;;;;;;;;;;;;;;;7.53;100.00;100015.69;5159132;23;19990;-87
2023/10/10 19:28:16;;;;;;;;;;;;;;;7.52;100.00;100018.34;5054126;28;19916;-87
2023/10/10 19:30:42;;;;;;;;;;;;;;;7.60;100.00;100016.38;5071566;28;19927;-87
2023/10/10 19:33:14;;;;;;;;;;;;;;;7.52;100.00;100016.56;5071105;28;20260;-86
2023/10/10 19:35:43;;;;;;;;;;;;;;;7.52;100.00;100023.63;5070079;28;19967;-87
2023/10/10 19:38:09;;;;;;;;;;;;;;;7.35;100.00;100019.63;5071958;28;19972;-87
2023/10/10 19:40:34;;;;;;;;;;;;;;;7.54;100.00;100019.16;5052822;28;19956;-87
2023/10/10 19:42:59;;;;;;;;;;;;;;;7.57;100.00;100019.09;5053966;28;19920;-87
2023/10/10 19:45:26;;;;;;;;;;;;;;;7.56;100.00;100014.72;5053900;28;19943;-87
2023/10/10 19:48:02;;;;;;;;;;;;;;;7.55;100.00;100016.50;5072091;28;19968;-87
2023/10/10 19:50:27;;;;;;;;;;;;;;;7.38;100.00;100013.44;5053702;28;19917;-87
2023/10/10 19:52:58;;;;;;;;;;;;;;;7.49;100.00;100015.78;5071863;28;19923;-88
2023/10/10 19:55:24;;;;;;;;;;;;;;;7.53;100.00;100013.03;5069733;28;19927;-87
2023/10/10 19:57:50;;;;;;;;;;;;;;;7.35;100.00;100009.09;5053757;28;20375;-86
2023/10/10 20:00:21;;;;;;;;;;;;;;;7.30;100.00;100016.25;5071661;28;20439;-87
2023/10/10 20:02:50;;;;;;;;;;;;;;;7.33;100.00;100010.91;5071677;28;19962;-86
2023/10/10 20:05:19;;;;;;;;;;;;;;;7.32;100.00;100009.16;5053685;28;19920;-86
2023/10/10 20:07:47;;;;;;;;;;;;;;;7.25;100.00;100004.97;5071737;28;19912;-86
2023/10/10 20:10:15;;;;;;;;;;;;;;;7.24;100.00;100005.88;5069734;28;19963;-92
2023/10/10 20:12:53;;;;;;;;;;;;;;;7.25;100.00;100007.63;5055822;28;19912;-86
2023/10/10 20:15:23;;;;;;;;;;;;;;;7.26;100.00;100019.91;5050076;28;19990;-85
2023/10/10 20:17:49;;;;;;;;;;;;;;;7.05;100.00;100010.75;5067369;28;19920;-87
2023/10/10 20:20:15;;;;;;;;;;;;;;;7.15;100.00;100011.38;5071813;28;19917;-86
2023/10/10 20:22:44;;;;;;;;;;;;;;;7.26;100.00;100014.63;5071481;28;19923;-86
2023/10/10 20:25:29;;;;;;;;;;;;;;;7.11;100.00;100015.84;5070094;28;19977;-90
2023/10/10 20:27:55;;;;;;;;;;;;;;;7.16;100.00;100018.38;5070470;28;19928;-88
2023/10/10 20:30:22;;;;;;;;;;;;;;;7.28;100.00;100013.66;5053298;28;19913;-88
2023/10/10 20:32:47;;;;;;;;;;;;;;;7.24;100.00;100012.03;5053382;28;20247;-88
2023/10/10 20:35:16;;;;;;;;;;;;;;;7.27;100.00;100004.03;5071541;28;19912;-89
2023/10/10 20:37:42;;;;;;;;;;;;;;;7.17;100.00;100010.44;5071416;28;19923;-89
2023/10/10 20:40:08;;;;;;;;;;;;;;;7.00;100.00;100008.22;5052236;28;19920;-89
2023/10/10 20:42:35;;;;;;;;;;;;;;;7.03;100.00;100007.28;5053304;28;19923;-88
2023/10/10 20:45:01;;;;;;;;;;;;;;;7.73;100.00;100003.72;5053498;28;19916;-86
2023/10/10 20:47:29;;;;;;;;;;;;;;;7.58;100.00;100002.38;5072342;28;19978;-89
2023/10/10 20:49:54;;;;;;;;;;;;;;;7.28;100.00;99999.63;5069338;28;19924;-88
2023/10/10 20:52:20;;;;;;;;;;;;;;;7.34;100.00;100001.22;5074856;28;19924;-89
2023/10/10 20:54:45;;;;;;;;;;;;;;;7.24;100.00;99993.59;5055792;28;19920;-86
2023/10/10 20:57:11;;;;;;;;;;;;;;;7.36;100.00;99997.66;5074861;28;19917;-86
2023/10/10 20:59:36;;;;;;;;;;;;;;;7.29;100.00;99998.69;5074768;28;20444;-88
2023/10/10 21:02:03;;;;;;;;;;;;;;;7.27;100.00;99993.50;5056795;28;20011;-89
2023/10/10 21:04:28;;;;;;;;;;;;;;;7.25;100.00;99986.53;5074498;28;19960;-87
2023/10/10 21:06:53;;;;;;;;;;;;;;;7.58;100.00;99986.53;5056718;28;20371;-88
2023/10/10 21:09:19;;;;;;;;;;;;;;;7.61;100.00;99991.72;5055562;28;19946;-88
2023/10/10 21:11:44;;;;;;;;;;;;;;;7.50;100.00;99997.28;5056787;28;19923;-89
2023/10/10 21:14:10;;;;;;;;;;;;;;;7.79;100.00;99995.63;5056598;28;20378;-87